sensor_id;sensor_type;location;lat;lon;timestamp;pressure;altitude;pressure_sealevel;temperature;humidity
44457;BME280;30159;49.316;8.558;2023-02-11T00:01:49;102553.16;;;0.20;100.00
44457;BME280;30159;49.316;8.558;2023-02-11T00:04:16;102562.88;;;0.38;100.00
44457;BME280;30159;49.316;8.558;2023-02-11T00:06:43;102491.00;;;-0.03;100.00
44457;BME280;30159;49.316;8.558;2023-02-11T00:09:09;102551.94;;;0.41;100.00
44457;BME280;30159;49.316;8.558;2023-02-11T00:11:37;102545.84;;;0.49;100.00
44457;BME280;30159;49.316;8.558;2023-02-11T00:14:05;102556.03;;;0.61;100.00
44457;BME280;30159;49.316;8.558;2023-02-11T00:16:33;102550.28;;;0.82;100.00
44457;BME280;30159;49.316;8.558;2023-02-11T00:19:00;102540.34;;;0.84;100.00
44457;BME280;30159;49.316;8.558;2023-02-11T00:21:28;102545.19;;;0.97;100.00
44457;BME280;30159;49.316;8.558;2023-02-11T00:23:55;102540.09;;;1.12;100.00
44457;BME280;30159;49.316;8.558;2023-02-11T00:26:25;102540.91;;;1.21;100.00
44457;BME280;30159;49.316;8.558;2023-02-11T00:28:53;102544.25;;;1.39;100.00
44457;BME280;30159;49.316;8.558;2023-02-11T00:31:24;102535.94;;;1.51;100.00
44457;BME280;30159;49.316;8.558;2023-02-11T00:33:51;102522.31;;;1.54;100.00
44457;BME280;30159;49.316;8.558;2023-02-11T00:36:19;102542.25;;;1.58;100.00
44457;BME280;30159;49.316;8.558;2023-02-11T00:38:46;102522.81;;;1.57;100.00
44457;BME280;30159;49.316;8.558;2023-02-11T00:41:15;102526.63;;;1.63;100.00
44457;BME280;30159;49.316;8.558;2023-02-11T00:43:42;102528.97;;;1.74;100.00
44457;BME280;30159;49.316;8.558;2023-02-11T00:46:10;102534.44;;;1.81;100.00
44457;BME280;30159;49.316;8.558;2023-02-11T00:48:37;102515.00;;;1.80;100.00
44457;BME280;30159;49.316;8.558;2023-02-11T00:51:04;102520.47;;;1.87;100.00
44457;BME280;30159;49.316;8.558;2023-02-11T00:53:31;102517.63;;;1.97;100.00
44457;BME280;30159;49.316;8.558;2023-02-11T00:55:58;102519.31;;;1.89;99.32
44457;BME280;30159;49.316;8.558;2023-02-11T00:58:26;102496.38;;;1.80;100.00
44457;BME280;30159;49.316;8.558;2023-02-11T01:00:52;102516.81;;;1.96;99.89
44457;BME280;30159;49.316;8.558;2023-02-11T01:03:21;102512.13;;;2.06;99.66
44457;BME280;30159;49.316;8.558;2023-02-11T01:05:47;102510.13;;;2.08;99.47
44457;BME280;30159;49.316;8.558;2023-02-11T01:08:14;102506.31;;;2.03;99.00
44457;BME280;30159;49.316;8.558;2023-02-11T01:10:40;102505.63;;;2.09;99.82
44457;BME280;30159;49.316;8.558;2023-02-11T01:13:08;102503.09;;;2.16;99.58
44457;BME280;30159;49.316;8.558;2023-02-11T01:15:35;102482.38;;;2.03;98.75
44457;BME280;30159;49.316;8.558;2023-02-11T01:18:03;102502.09;;;2.17;98.84
44457;BME280;30159;49.316;8.558;2023-02-11T01:20:31;102510.25;;;2.15;99.03
44457;BME280;30159;49.316;8.558;2023-02-11T01:22:58;102510.13;;;2.08;99.45
44457;BME280;30159;49.316;8.558;2023-02-11T01:25:24;102514.09;;;2.04;100.00
44457;BME280;30159;49.316;8.558;2023-02-11T01:27:50;102523.59;;;2.07;99.92
44457;BME280;30159;49.316;8.558;2023-02-11T01:30:17;102510.63;;;2.04;100.00
44457;BME280;30159;49.316;8.558;2023-02-11T01:32:44;102515.59;;;2.07;100.00
44457;BME280;30159;49.316;8.558;2023-02-11T01:35:10;102514.94;;;2.05;100.00
44457;BME280;30159;49.316;8.558;2023-02-11T01:37:38;102512.25;;;2.13;100.00
44457;BME280;30159;49.316;8.558;2023-02-11T01:40:09;102512.25;;;2.13;100.00
44457;BME280;30159;49.316;8.558;2023-02-11T01:42:36;102510.56;;;2.20;100.00
44457;BME280;30159;49.316;8.558;2023-02-11T01:48:03;102502.88;;;2.34;100.00
44457;BME280;30159;49.316;8.558;2023-02-11T01:50:30;102494.03;;;2.33;99.40
44457;BME280;30159;49.316;8.558;2023-02-11T01:52:58;102486.91;;;2.34;100.00
44457;BME280;30159;49.316;8.558;2023-02-11T01:55:45;102495.19;;;2.39;99.30
44457;BME280;30159;49.316;8.558;2023-02-11T01:58:31;102467.63;;;2.31;99.29
44457;BME280;30159;49.316;8.558;2023-02-11T02:01:03;102488.53;;;2.43;99.05
44457;BME280;30159;49.316;8.558;2023-02-11T02:03:32;102486.53;;;2.45;99.90
44457;BME280;30159;49.316;8.558;2023-02-11T02:06:05;102421.00;;;1.96;99.70
44457;BME280;30159;49.316;8.558;2023-02-11T02:08:38;102489.19;;;2.45;99.78
44457;BME280;30159;49.316;8.558;2023-02-11T02:11:06;102483.59;;;2.31;100.00
44457;BME280;30159;49.316;8.558;2023-02-11T02:13:33;102479.19;;;2.47;100.00
44457;BME280;30159;49.316;8.558;2023-02-11T02:16:03;102476.00;;;2.51;99.95
44457;BME280;30159;49.316;8.558;2023-02-11T02:18:35;102456.53;;;2.51;98.42
44457;BME280;30159;49.316;8.558;2023-02-11T02:21:28;102449.28;;;2.37;99.81
44457;BME280;30159;49.316;8.558;2023-02-11T02:24:19;102455.09;;;2.40;100.00
44457;BME280;30159;49.316;8.558;2023-02-11T02:27:03;102449.44;;;2.35;100.00
44457;BME280;30159;49.316;8.558;2023-02-11T02:29:52;102451.13;;;2.28;100.00
44457;BME280;30159;49.316;8.558;2023-02-11T02:32:30;102447.38;;;2.14;100.00
44457;BME280;30159;49.316;8.558;2023-02-11T02:35:04;102450.38;;;2.19;100.00
44457;BME280;30159;49.316;8.558;2023-02-11T02:37:37;102449.00;;;2.23;100.00
44457;BME280;30159;49.316;8.558;2023-02-11T02:40:10;102442.69;;;2.16;100.00
44457;BME280;30159;49.316;8.558;2023-02-11T02:42:38;102380.34;;;1.71;100.00
44457;BME280;30159;49.316;8.558;2023-02-11T02:45:08;102436.06;;;2.12;100.00
44457;BME280;30159;49.316;8.558;2023-02-11T02:47:37;102423.94;;;2.09;100.00
44457;BME280;30159;49.316;8.558;2023-02-11T02:50:05;102431.97;;;2.01;100.00
44457;BME280;30159;49.316;8.558;2023-02-11T02:52:36;102427.50;;;1.94;100.00
44457;BME280;30159;49.316;8.558;2023-02-11T02:55:21;102412.53;;;1.93;100.00
44457;BME280;30159;49.316;8.558;2023-02-11T02:58:04;102421.19;;;1.86;100.00
44457;BME280;30159;49.316;8.558;2023-02-11T03:00:39;102411.84;;;1.90;100.00
44457;BME280;30159;49.316;8.558;2023-02-11T03:03:16;102382.34;;;1.77;100.00
44457;BME280;30159;49.316;8.558;2023-02-11T03:05:52;102406.81;;;2.04;100.00
44457;BME280;30159;49.316;8.558;2023-02-11T03:08:25;102398.31;;;2.08;100.00
44457;BME280;30159;49.316;8.558;2023-02-11T03:10:53;102412.09;;;2.20;100.00
44457;BME280;30159;49.316;8.558;2023-02-11T03:13:25;102411.72;;;2.23;100.00
44457;BME280;30159;49.316;8.558;2023-02-11T03:15:54;102411.25;;;2.20;100.00
44457;BME280;30159;49.316;8.558;2023-02-11T03:18:26;102419.41;;;2.18;100.00
44457;BME280;30159;49.316;8.558;2023-02-11T03:20:55;102429.69;;;2.21;100.00
44457;BME280;30159;49.316;8.558;2023-02-11T03:23:25;102413.63;;;2.06;100.00
44457;BME280;30159;49.316;8.558;2023-02-11T03:25:57;102419.56;;;2.17;100.00
44457;BME280;30159;49.316;8.558;2023-02-11T03:28:28;102420.44;;;2.17;100.00
44457;BME280;30159;49.316;8.558;2023-02-11T03:31:01;102428.34;;;2.25;100.00
44457;BME280;30159;49.316;8.558;2023-02-11T03:33:36;102432.03;;;2.24;100.00
44457;BME280;30159;49.316;8.558;2023-02-11T03:36:08;102438.03;;;2.26;100.00
44457;BME280;30159;49.316;8.558;2023-02-11T03:38:38;102440.53;;;2.20;100.00
44457;BME280;30159;49.316;8.558;2023-02-11T03:41:10;102435.88;;;2.22;100.00
44457;BME280;30159;49.316;8.558;2023-02-11T03:43:43;102444.72;;;2.14;100.00
44457;BME280;30159;49.316;8.558;2023-02-11T03:46:12;102411.69;;;1.92;100.00
44457;BME280;30159;49.316;8.558;2023-02-11T03:48:44;102453.03;;;2.19;100.00
44457;BME280;30159;49.316;8.558;2023-02-11T03:51:14;102452.66;;;2.22;100.00
44457;BME280;30159;49.316;8.558;2023-02-11T03:53:43;102423.03;;;2.25;100.00
44457;BME280;30159;49.316;8.558;2023-02-11T03:56:14;102420.66;;;2.30;100.00
44457;BME280;30159;49.316;8.558;2023-02-11T03:58:43;102412.00;;;2.37;100.00
44457;BME280;30159;49.316;8.558;2023-02-11T04:01:09;102405.50;;;2.39;100.00
44457;BME280;30159;49.316;8.558;2023-02-11T04:03:36;102339.63;;;2.02;100.00
44457;BME280;30159;49.316;8.558;2023-02-11T04:06:05;102367.72;;;2.13;100.00
44457;BME280;30159;49.316;8.558;2023-02-11T04:08:31;102414.78;;;2.43;100.00
44457;BME280;30159;49.316;8.558;2023-02-11T04:10:58;102412.81;;;2.37;100.00
44457;BME280;30159;49.316;8.558;2023-02-11T04:13:25;102422.88;;;2.27;100.00
44457;BME280;30159;49.316;8.558;2023-02-11T04:15:52;102420.66;;;2.30;100.00
44457;BME280;30159;49.316;8.558;2023-02-11T04:18:18;102413.00;;;2.36;100.00
44457;BME280;30159;49.316;8.558;2023-02-11T04:20:45;102412.00;;;2.37;100.00
44457;BME280;30159;49.316;8.558;2023-02-11T04:23:13;102404.03;;;2.28;100.00
44457;BME280;30159;49.316;8.558;2023-02-11T04:25:39;102394.53;;;2.34;100.00
44457;BME280;30159;49.316;8.558;2023-02-11T04:28:06;102391.06;;;2.34;100.00
44457;BME280;30159;49.316;8.558;2023-02-11T04:30:32;102396.28;;;2.50;100.00
44457;BME280;30159;49.316;8.558;2023-02-11T04:32:59;102390.75;;;2.51;100.00
44457;BME280;30159;49.316;8.558;2023-02-11T04:35:25;102390.56;;;2.61;100.00
44457;BME280;30159;49.316;8.558;2023-02-11T04:37:52;102391.97;;;2.72;99.82
44457;BME280;30159;49.316;8.558;2023-02-11T04:40:20;102338.88;;;2.47;99.17
44457;BME280;30159;49.316;8.558;2023-02-11T04:42:46;102380.66;;;2.70;98.94
44457;BME280;30159;49.316;8.558;2023-02-11T04:45:12;102385.03;;;2.63;98.77
44457;BME280;30159;49.316;8.558;2023-02-11T04:47:42;102381.84;;;2.67;99.00
44457;BME280;30159;49.316;8.558;2023-02-11T04:50:09;102369.41;;;2.60;99.64
44457;BME280;30159;49.316;8.558;2023-02-11T04:52:35;102356.75;;;2.62;99.15
44457;BME280;30159;49.316;8.558;2023-02-11T04:55:02;102361.13;;;2.55;99.89
44457;BME280;30159;49.316;8.558;2023-02-11T04:57:30;102346.88;;;2.47;99.71
44457;BME280;30159;49.316;8.558;2023-02-11T04:59:56;102347.03;;;2.46;100.00
44457;BME280;30159;49.316;8.558;2023-02-11T05:02:23;102344.41;;;2.38;100.00
44457;BME280;30159;49.316;8.558;2023-02-11T05:04:49;102341.75;;;2.38;100.00
44457;BME280;30159;49.316;8.558;2023-02-11T05:07:16;102346.47;;;2.27;100.00
44457;BME280;30159;49.316;8.558;2023-02-11T05:09:42;102340.47;;;2.34;100.00
44457;BME280;30159;49.316;8.558;2023-02-11T05:12:09;102325.25;;;2.19;100.00
44457;BME280;30159;49.316;8.558;2023-02-11T05:14:37;102365.09;;;2.36;100.00
44457;BME280;30159;49.316;8.558;2023-02-11T05:17:03;102370.28;;;2.29;100.00
44457;BME280;30159;49.316;8.558;2023-02-11T05:19:30;102378.25;;;2.29;100.00
44457;BME280;30159;49.316;8.558;2023-02-11T05:21:56;102381.69;;;2.15;100.00
44457;BME280;30159;49.316;8.558;2023-02-11T05:24:23;102380.22;;;2.04;100.00
44457;BME280;30159;49.316;8.558;2023-02-11T05:26:49;102387.84;;;2.07;100.00
44457;BME280;30159;49.316;8.558;2023-02-11T05:29:16;102386.00;;;2.07;100.00
44457;BME280;30159;49.316;8.558;2023-02-11T05:31:44;102398.50;;;2.07;100.00
44457;BME280;30159;49.316;8.558;2023-02-11T05:34:10;102402.16;;;2.06;100.00
44457;BME280;30159;49.316;8.558;2023-02-11T05:36:37;102402.69;;;2.01;100.00
44457;BME280;30159;49.316;8.558;2023-02-11T05:39:03;102412.00;;;1.97;100.00
44457;BME280;30159;49.316;8.558;2023-02-11T05:41:30;102410.16;;;1.98;100.00
44457;BME280;30159;49.316;8.558;2023-02-11T05:43:56;102409.69;;;1.94;100.00
44457;BME280;30159;49.316;8.558;2023-02-11T05:46:23;102411.03;;;1.90;100.00
44457;BME280;30159;49.316;8.558;2023-02-11T05:48:51;102403.09;;;1.82;100.00
44457;BME280;30159;49.316;8.558;2023-02-11T05:51:17;102395.94;;;1.74;100.00
44457;BME280;30159;49.316;8.558;2023-02-11T05:53:44;102382.69;;;1.66;100.00
44457;BME280;30159;49.316;8.558;2023-02-11T05:56:10;102372.41;;;1.55;100.00
44457;BME280;30159;49.316;8.558;2023-02-11T05:58:38;102365.81;;;1.42;100.00
44457;BME280;30159;49.316;8.558;2023-02-11T06:01:05;102386.38;;;1.48;100.00
44457;BME280;30159;49.316;8.558;2023-02-11T06:03:31;102345.25;;;1.03;100.00
44457;BME280;30159;49.316;8.558;2023-02-11T06:05:59;102386.09;;;1.35;100.00
44457;BME280;30159;49.316;8.558;2023-02-11T06:08:26;102400.00;;;1.54;100.00
44457;BME280;30159;49.316;8.558;2023-02-11T06:10:52;102400.66;;;1.56;100.00
44457;BME280;30159;49.316;8.558;2023-02-11T06:13:19;102386.69;;;1.54;100.00
44457;BME280;30159;49.316;8.558;2023-02-11T06:15:54;102389.66;;;1.67;100.00
44457;BME280;30159;49.316;8.558;2023-02-11T06:18:21;102385.66;;;1.71;100.00
44457;BME280;30159;49.316;8.558;2023-02-11T06:20:48;102374.34;;;1.77;100.00
44457;BME280;30159;49.316;8.558;2023-02-11T06:23:16;102383.63;;;1.81;100.00
44457;BME280;30159;49.316;8.558;2023-02-11T06:25:42;102384.94;;;1.85;100.00
44457;BME280;30159;49.316;8.558;2023-02-11T06:28:09;102363.28;;;1.97;100.00
44457;BME280;30159;49.316;8.558;2023-02-11T06:30:36;102360.63;;;1.97;100.00
44457;BME280;30159;49.316;8.558;2023-02-11T06:33:03;102375.56;;;2.06;100.00
44457;BME280;30159;49.316;8.558;2023-02-11T06:35:30;102379.03;;;2.06;100.00
44457;BME280;30159;49.316;8.558;2023-02-11T06:37:57;102309.50;;;1.78;100.00
44457;BME280;30159;49.316;8.558;2023-02-11T06:40:25;102362.91;;;2.08;100.00
44457;BME280;30159;49.316;8.558;2023-02-11T06:42:52;102369.22;;;2.07;100.00
44457;BME280;30159;49.316;8.558;2023-02-11T06:45:18;102364.84;;;2.14;100.00
44457;BME280;30159;49.316;8.558;2023-02-11T06:47:45;102381.53;;;2.08;100.00
44457;BME280;30159;49.316;8.558;2023-02-11T06:50:13;102389.38;;;2.01;100.00
44457;BME280;30159;49.316;8.558;2023-02-11T06:52:40;102373.63;;;1.92;100.00
44457;BME280;30159;49.316;8.558;2023-02-11T06:55:07;102395.91;;;1.90;100.00
44457;BME280;30159;49.316;8.558;2023-02-11T06:57:35;102397.06;;;1.88;100.00
44457;BME280;30159;49.316;8.558;2023-02-11T07:00:02;102393.13;;;1.76;100.00
44457;BME280;30159;49.316;8.558;2023-02-11T07:02:29;102389.00;;;1.73;100.00
44457;BME280;30159;49.316;8.558;2023-02-11T07:04:55;102416.16;;;2.00;100.00
44457;BME280;30159;49.316;8.558;2023-02-11T07:07:22;102416.00;;;1.93;100.00
44457;BME280;30159;49.316;8.558;2023-02-11T07:09:48;102405.88;;;1.88;100.00
44457;BME280;30159;49.316;8.558;2023-02-11T07:12:15;102408.91;;;1.85;100.00
44457;BME280;30159;49.316;8.558;2023-02-11T07:14:43;102412.69;;;1.91;100.00
44457;BME280;30159;49.316;8.558;2023-02-11T07:17:09;102409.06;;;1.84;100.00
44457;BME280;30159;49.316;8.558;2023-02-11T07:19:36;102398.75;;;1.89;100.00
44457;BME280;30159;49.316;8.558;2023-02-11T07:22:02;102378.13;;;1.83;100.00
44457;BME280;30159;49.316;8.558;2023-02-11T07:24:29;102402.47;;;2.11;100.00
44457;BME280;30159;49.316;8.558;2023-02-11T07:26:56;102387.47;;;2.18;100.00
44457;BME280;30159;49.316;8.558;2023-02-11T07:29:22;102394.75;;;2.24;100.00
44457;BME280;30159;49.316;8.558;2023-02-11T07:31:50;102402.44;;;2.19;99.60
44457;BME280;30159;49.316;8.558;2023-02-11T07:34:18;102397.75;;;2.21;99.98
44457;BME280;30159;49.316;8.558;2023-02-11T07:36:44;102410.03;;;2.30;99.26
44457;BME280;30159;49.316;8.558;2023-02-11T07:39:13;102410.88;;;2.31;98.48
44457;BME280;30159;49.316;8.558;2023-02-11T07:41:39;102398.41;;;2.23;98.19
44457;BME280;30159;49.316;8.558;2023-02-11T07:44:07;102409.03;;;2.31;98.28
44457;BME280;30159;49.316;8.558;2023-02-11T07:46:33;102276.53;;;1.56;97.77
44457;BME280;30159;49.316;8.558;2023-02-11T07:49:02;102409.94;;;2.47;97.97
44457;BME280;30159;49.316;8.558;2023-02-11T07:51:29;102257.34;;;1.61;96.68
44457;BME280;30159;49.316;8.558;2023-02-11T07:53:57;102406.84;;;2.66;96.30
44457;BME280;30159;49.316;8.558;2023-02-11T07:56:25;102411.41;;;2.81;95.21
44457;BME280;30159;49.316;8.558;2023-02-11T07:58:53;102405.78;;;2.76;94.88
44457;BME280;30159;49.316;8.558;2023-02-11T08:01:22;102404.34;;;2.88;95.36
44457;BME280;30159;49.316;8.558;2023-02-11T08:03:50;102401.97;;;2.93;94.16
44457;BME280;30159;49.316;8.558;2023-02-11T08:06:19;102395.94;;;2.99;93.50
44457;BME280;30159;49.316;8.558;2023-02-11T08:08:47;102402.44;;;2.97;93.39
44457;BME280;30159;49.316;8.558;2023-02-11T08:11:15;102393.44;;;2.98;94.12
44457;BME280;30159;49.316;8.558;2023-02-11T08:13:42;102386.78;;;2.93;93.72
44457;BME280;30159;49.316;8.558;2023-02-11T08:16:17;102392.63;;;3.12;93.95
44457;BME280;30159;49.316;8.558;2023-02-11T08:18:44;102407.84;;;3.26;94.07
44457;BME280;30159;49.316;8.558;2023-02-11T08:21:10;102407.00;;;3.26;92.23
44457;BME280;30159;49.316;8.558;2023-02-11T08:23:40;102395.91;;;3.37;92.80
44457;BME280;30159;49.316;8.558;2023-02-11T08:26:09;102398.69;;;3.58;92.50
44457;BME280;30159;49.316;8.558;2023-02-11T08:28:36;102400.72;;;3.56;91.21
44457;BME280;30159;49.316;8.558;2023-02-11T08:31:04;102403.47;;;3.63;90.52
44457;BME280;30159;49.316;8.558;2023-02-11T08:33:31;102405.44;;;3.69;90.62
44457;BME280;30159;49.316;8.558;2023-02-11T08:35:58;102405.44;;;3.54;90.46
44457;BME280;30159;49.316;8.558;2023-02-11T08:38:25;102396.41;;;3.55;90.96
44457;BME280;30159;49.316;8.558;2023-02-11T08:40:53;102351.88;;;3.41;90.92
44457;BME280;30159;49.316;8.558;2023-02-11T08:43:19;102402.84;;;3.76;90.79
44457;BME280;30159;49.316;8.558;2023-02-11T08:45:47;102382.78;;;3.80;90.32
44457;BME280;30159;49.316;8.558;2023-02-11T08:48:13;102407.16;;;4.07;90.10
44457;BME280;30159;49.316;8.558;2023-02-11T08:50:40;102402.00;;;4.05;88.68
44457;BME280;30159;49.316;8.558;2023-02-11T08:53:07;102407.81;;;4.09;89.67
44457;BME280;30159;49.316;8.558;2023-02-11T08:55:33;102417.66;;;4.08;88.31
44457;BME280;30159;49.316;8.558;2023-02-11T08:58:01;102421.69;;;4.19;88.61
44457;BME280;30159;49.316;8.558;2023-02-11T09:00:27;102411.13;;;4.11;88.36
44457;BME280;30159;49.316;8.558;2023-02-11T09:02:54;102402.84;;;4.42;87.41
44457;BME280;30159;49.316;8.558;2023-02-11T09:05:21;102394.25;;;4.47;86.54
44457;BME280;30159;49.316;8.558;2023-02-11T09:07:48;102400.00;;;4.43;87.23
44457;BME280;30159;49.316;8.558;2023-02-11T09:10:14;102397.41;;;4.50;86.95
44457;BME280;30159;49.316;8.558;2023-02-11T09:12:41;102403.81;;;4.56;86.44
44457;BME280;30159;49.316;8.558;2023-02-11T09:15:09;102277.22;;;3.77;86.30
44457;BME280;30159;49.316;8.558;2023-02-11T09:17:35;102401.78;;;4.58;86.88
44457;BME280;30159;49.316;8.558;2023-02-11T09:20:02;102395.56;;;4.51;86.46
44457;BME280;30159;49.316;8.558;2023-02-11T09:22:29;102266.09;;;3.74;86.47
44457;BME280;30159;49.316;8.558;2023-02-11T09:24:56;102411.03;;;4.77;85.76
44457;BME280;30159;49.316;8.558;2023-02-11T09:27:22;102406.25;;;4.94;86.24
44457;BME280;30159;49.316;8.558;2023-02-11T09:29:49;102400.13;;;5.00;85.30
44457;BME280;30159;49.316;8.558;2023-02-11T09:32:17;102414.78;;;5.04;85.62
44457;BME280;30159;49.316;8.558;2023-02-11T09:34:43;102408.22;;;5.06;84.71
44457;BME280;30159;49.316;8.558;2023-02-11T09:37:10;102427.19;;;5.40;83.64
44457;BME280;30159;49.316;8.558;2023-02-11T09:39:36;102392.22;;;5.41;83.49
44457;BME280;30159;49.316;8.558;2023-02-11T09:42:40;102429.91;;;5.75;81.73
44457;BME280;30159;49.316;8.558;2023-02-11T09:45:12;102425.28;;;5.90;81.71
44457;BME280;30159;49.316;8.558;2023-02-11T09:47:46;102432.91;;;5.93;81.66
44457;BME280;30159;49.316;8.558;2023-02-11T09:50:17;102399.09;;;5.85;80.89
44457;BME280;30159;49.316;8.558;2023-02-11T09:52:51;102417.34;;;6.10;80.57
44457;BME280;30159;49.316;8.558;2023-02-11T09:55:22;102417.84;;;6.27;81.00
44457;BME280;30159;49.316;8.558;2023-02-11T09:57:51;102410.84;;;6.26;79.95
44457;BME280;30159;49.316;8.558;2023-02-11T10:00:21;102400.16;;;6.39;79.45
44457;BME280;30159;49.316;8.558;2023-02-11T10:03:08;102410.13;;;6.65;78.87
44457;BME280;30159;49.316;8.558;2023-02-11T10:05:58;102414.03;;;6.63;78.11
44457;BME280;30159;49.316;8.558;2023-02-11T10:08:33;102405.41;;;6.87;77.58
44457;BME280;30159;49.316;8.558;2023-02-11T10:11:08;102396.75;;;7.12;76.10
44457;BME280;30159;49.316;8.558;2023-02-11T10:13:47;102407.50;;;7.12;75.79
44457;BME280;30159;49.316;8.558;2023-02-11T10:16:27;102408.91;;;7.48;76.13
44457;BME280;30159;49.316;8.558;2023-02-11T10:19:08;102399.31;;;7.85;73.54
44457;BME280;30159;49.316;8.558;2023-02-11T10:21:44;102410.38;;;8.15;72.94
44457;BME280;30159;49.316;8.558;2023-02-11T10:24:16;102399.56;;;8.29;71.87
44457;BME280;30159;49.316;8.558;2023-02-11T10:26:44;102410.63;;;8.07;73.46
44457;BME280;30159;49.316;8.558;2023-02-11T10:29:17;102398.72;;;8.35;72.63
44457;BME280;30159;49.316;8.558;2023-02-11T10:31:47;102396.31;;;8.13;73.28
44457;BME280;30159;49.316;8.558;2023-02-11T10:34:17;102391.03;;;8.45;71.91
44457;BME280;30159;49.316;8.558;2023-02-11T10:36:44;102396.19;;;8.53;71.81
44457;BME280;30159;49.316;8.558;2023-02-11T10:39:12;102394.53;;;8.46;72.04
44457;BME280;30159;49.316;8.558;2023-02-11T10:41:42;102397.38;;;8.57;71.59
44457;BME280;30159;49.316;8.558;2023-02-11T10:44:20;102388.94;;;8.54;72.21
44457;BME280;30159;49.316;8.558;2023-02-11T10:46:48;102323.88;;;7.93;72.07
44457;BME280;30159;49.316;8.558;2023-02-11T10:49:38;102379.44;;;8.51;72.40
44457;BME280;30159;49.316;8.558;2023-02-11T10:52:20;102380.03;;;8.53;72.43
44457;BME280;30159;49.316;8.558;2023-02-11T10:55:00;102373.31;;;8.31;73.16
44457;BME280;30159;49.316;8.558;2023-02-11T10:57:31;102377.59;;;8.45;73.38
44457;BME280;30159;49.316;8.558;2023-02-11T11:00:00;102379.00;;;8.54;72.52
44457;BME280;30159;49.316;8.558;2023-02-11T11:02:29;102376.31;;;8.86;72.90
44457;BME280;30159;49.316;8.558;2023-02-11T11:05:00;102378.34;;;8.91;71.65
44457;BME280;30159;49.316;8.558;2023-02-11T11:07:29;102366.72;;;8.65;71.76
44457;BME280;30159;49.316;8.558;2023-02-11T11:10:00;102385.47;;;9.03;71.80
44457;BME280;30159;49.316;8.558;2023-02-11T11:12:30;102386.56;;;8.96;71.68
44457;BME280;30159;49.316;8.558;2023-02-11T11:14:58;102396.06;;;9.23;71.11
44457;BME280;30159;49.316;8.558;2023-02-11T11:17:25;102384.59;;;9.10;71.04
44457;BME280;30159;49.316;8.558;2023-02-11T11:19:55;102386.13;;;9.24;70.67
44457;BME280;30159;49.316;8.558;2023-02-11T11:22:37;102386.22;;;9.11;71.87
44457;BME280;30159;49.316;8.558;2023-02-11T11:25:04;102262.78;;;8.14;71.32
44457;BME280;30159;49.316;8.558;2023-02-11T11:27:31;102382.38;;;8.75;72.65
44457;BME280;30159;49.316;8.558;2023-02-11T11:29:58;102384.84;;;9.01;72.96
44457;BME280;30159;49.316;8.558;2023-02-11T11:32:28;102382.25;;;9.38;71.45
44457;BME280;30159;49.316;8.558;2023-02-11T11:34:59;102372.63;;;9.49;71.49
44457;BME280;30159;49.316;8.558;2023-02-11T11:37:28;102380.09;;;9.47;71.64
44457;BME280;30159;49.316;8.558;2023-02-11T11:40:00;102378.09;;;9.42;69.64
44457;BME280;30159;49.316;8.558;2023-02-11T11:42:29;102394.91;;;9.38;70.31
44457;BME280;30159;49.316;8.558;2023-02-11T11:44:58;102390.53;;;9.37;71.91
44457;BME280;30159;49.316;8.558;2023-02-11T11:47:30;102384.34;;;9.36;70.75
44457;BME280;30159;49.316;8.558;2023-02-11T11:50:25;102385.44;;;9.54;70.56
44457;BME280;30159;49.316;8.558;2023-02-11T11:52:57;102355.13;;;9.15;71.85
44457;BME280;30159;49.316;8.558;2023-02-11T11:55:31;102385.25;;;9.48;71.87
44457;BME280;30159;49.316;8.558;2023-02-11T11:57:59;102384.22;;;9.49;70.75
44457;BME280;30159;49.316;8.558;2023-02-11T12:00:31;102388.00;;;9.23;71.16
44457;BME280;30159;49.316;8.558;2023-02-11T12:06:23;102359.03;;;8.94;71.73
44457;BME280;30159;49.316;8.558;2023-02-11T12:09:00;102376.41;;;8.98;71.44
44457;BME280;30159;49.316;8.558;2023-02-11T12:11:37;102367.00;;;8.82;71.79
44457;BME280;30159;49.316;8.558;2023-02-11T12:14:19;102367.88;;;8.76;72.15
44457;BME280;30159;49.316;8.558;2023-02-11T12:16:55;102365.53;;;8.86;73.11
44457;BME280;30159;49.316;8.558;2023-02-11T12:19:47;102357.81;;;8.64;73.37
44457;BME280;30159;49.316;8.558;2023-02-11T12:22:33;102358.22;;;8.68;73.84
44457;BME280;30159;49.316;8.558;2023-02-11T12:25:26;102360.41;;;9.03;73.13
44457;BME280;30159;49.316;8.558;2023-02-11T12:28:02;102343.78;;;9.31;72.24
44457;BME280;30159;49.316;8.558;2023-02-11T12:30:51;102355.81;;;9.54;71.14
44457;BME280;30159;49.316;8.558;2023-02-11T12:33:27;102359.16;;;9.67;72.19
44457;BME280;30159;49.316;8.558;2023-02-11T12:36:01;102348.81;;;9.64;71.13
44457;BME280;30159;49.316;8.558;2023-02-11T12:38:42;102339.03;;;9.52;72.15
44457;BME280;30159;49.316;8.558;2023-02-11T12:41:20;102339.09;;;9.45;71.85
44457;BME280;30159;49.316;8.558;2023-02-11T12:44:16;102332.88;;;9.81;71.53
44457;BME280;30159;49.316;8.558;2023-02-11T12:46:49;102336.56;;;9.68;71.05
44457;BME280;30159;49.316;8.558;2023-02-11T12:49:36;102344.19;;;9.53;71.33
44457;BME280;30159;49.316;8.558;2023-02-11T12:52:17;102342.53;;;9.34;72.89
44457;BME280;30159;49.316;8.558;2023-02-11T12:54:50;102337.84;;;9.66;72.33
44457;BME280;30159;49.316;8.558;2023-02-11T12:57:22;102347.94;;;9.70;71.61
44457;BME280;30159;49.316;8.558;2023-02-11T12:59:57;102343.81;;;9.68;71.86
44457;BME280;30159;49.316;8.558;2023-02-11T13:02:32;102346.13;;;9.83;71.44
44457;BME280;30159;49.316;8.558;2023-02-11T13:05:04;102334.13;;;9.97;72.83
44457;BME280;30159;49.316;8.558;2023-02-11T13:07:34;102335.09;;;10.03;71.67
44457;BME280;30159;49.316;8.558;2023-02-11T13:10:05;102289.00;;;9.74;71.75
44457;BME280;30159;49.316;8.558;2023-02-11T13:12:37;102271.69;;;9.52;72.13
44457;BME280;30159;49.316;8.558;2023-02-11T13:15:23;102336.84;;;9.79;72.74
44457;BME280;30159;49.316;8.558;2023-02-11T13:17:55;102340.53;;;9.47;72.63